createdAt,value
2022-07-31T00:01:42.761Z,27.10
2022-07-31T00:04:11.692Z,26.90
2022-07-31T00:06:41.458Z,27.00
2022-07-31T00:09:45.378Z,27.20
2022-07-31T00:11:59.586Z,27.30
2022-07-31T00:14:29.556Z,27.20
2022-07-31T00:17:03.336Z,27.20
2022-07-31T00:19:32.671Z,27.10
2022-07-31T00:22:01.670Z,27.20
2022-07-31T00:24:30.792Z,27.20
2022-07-31T00:26:59.962Z,27.20
2022-07-31T00:29:29.254Z,27.10
2022-07-31T00:31:58.455Z,27.10
2022-07-31T00:34:46.870Z,27.10
2022-07-31T00:37:15.820Z,27.10
2022-07-31T00:39:45.117Z,27.10
2022-07-31T00:42:19.357Z,27.10
2022-07-31T00:44:48.623Z,26.80
2022-07-31T00:47:18.210Z,26.90
2022-07-31T00:49:55.542Z,26.90
2022-07-31T00:52:25.378Z,27.10
2022-07-31T00:54:54.365Z,27.10
2022-07-31T00:57:23.410Z,27.00
2022-07-31T00:59:52.389Z,26.90
2022-07-31T01:02:21.306Z,27.00
2022-07-31T01:04:50.280Z,27.10
2022-07-31T01:07:20.596Z,27.10
2022-07-31T01:09:51.242Z,27.10
2022-07-31T01:12:31.101Z,27.10
2022-07-31T01:15:04.911Z,27.10
2022-07-31T01:17:35.251Z,26.80
2022-07-31T01:20:05.998Z,26.90
2022-07-31T01:22:54.289Z,26.90
2022-07-31T01:25:40.471Z,26.90
2022-07-31T01:28:41.604Z,27.00
2022-07-31T01:31:26.719Z,26.90
2022-07-31T01:34:05.272Z,26.90
2022-07-31T01:36:38.216Z,26.70
2022-07-31T01:39:07.813Z,26.70
2022-07-31T01:41:43.411Z,26.60
2022-07-31T01:44:17.250Z,26.80
2022-07-31T01:46:49.725Z,27.00
2022-07-31T01:49:20.820Z,27.00
2022-07-31T01:51:52.785Z,26.70
2022-07-31T01:54:25.983Z,26.70
2022-07-31T01:56:59.828Z,26.70
2022-07-31T01:59:31.988Z,26.80
2022-07-31T02:02:17.171Z,26.90
2022-07-31T02:04:48.370Z,26.90
2022-07-31T02:07:19.037Z,26.80
2022-07-31T02:09:53.867Z,26.80
2022-07-31T02:12:34.397Z,26.80
2022-07-31T02:15:09.196Z,26.90
2022-07-31T02:17:42.077Z,26.90
2022-07-31T02:20:21.752Z,26.80
2022-07-31T02:22:52.176Z,26.80
2022-07-31T02:25:21.193Z,26.70
2022-07-31T02:27:59.148Z,26.50
2022-07-31T02:30:38.867Z,26.40
2022-07-31T02:33:14.089Z,26.40
2022-07-31T02:35:45.846Z,26.70
2022-07-31T02:38:23.423Z,26.80
2022-07-31T02:40:59.152Z,26.80
2022-07-31T02:43:32.649Z,26.90
2022-07-31T02:46:09.402Z,26.90
2022-07-31T02:48:39.639Z,26.90
2022-07-31T02:51:11.839Z,26.90
2022-07-31T02:53:43.923Z,26.80
2022-07-31T02:56:13.515Z,26.60
2022-07-31T02:58:43.949Z,26.70
2022-07-31T03:01:24.316Z,26.80
2022-07-31T03:03:53.537Z,26.70
2022-07-31T03:06:22.626Z,26.80
2022-07-31T03:08:51.799Z,26.70
2022-07-31T03:11:23.720Z,26.50
2022-07-31T03:13:56.022Z,26.70
2022-07-31T03:16:28.046Z,26.80
2022-07-31T03:18:58.882Z,26.80
2022-07-31T03:21:28.072Z,26.60
2022-07-31T03:23:57.451Z,26.60
2022-07-31T03:26:27.021Z,26.70
2022-07-31T03:28:56.251Z,26.50
2022-07-31T03:31:27.459Z,26.60
2022-07-31T03:33:56.646Z,26.60
2022-07-31T03:36:26.481Z,26.70
2022-07-31T03:38:55.874Z,26.80
2022-07-31T03:41:35.909Z,26.80
2022-07-31T03:44:05.494Z,26.80
2022-07-31T03:46:36.492Z,26.80
2022-07-31T03:49:06.570Z,26.90
2022-07-31T03:51:36.355Z,26.70
2022-07-31T03:54:05.929Z,26.60
2022-07-31T03:56:59.167Z,26.60
2022-07-31T03:59:29.871Z,26.50
2022-07-31T04:02:10.405Z,26.50
2022-07-31T04:04:53.470Z,26.60
2022-07-31T04:07:22.848Z,26.40
2022-07-31T04:09:51.873Z,26.40
2022-07-31T04:12:21.717Z,26.40
2022-07-31T04:14:50.994Z,26.40
2022-07-31T04:17:22.158Z,26.50
2022-07-31T04:19:51.433Z,26.60
2022-07-31T04:22:20.343Z,26.80
2022-07-31T04:24:50.433Z,26.80
2022-07-31T04:27:49.099Z,26.90
2022-07-31T04:30:19.567Z,26.90
2022-07-31T04:32:51.266Z,26.80
2022-07-31T04:35:24.188Z,26.80
2022-07-31T04:37:53.140Z,26.70
2022-07-31T04:40:23.497Z,26.70
2022-07-31T04:42:52.563Z,26.70
2022-07-31T04:45:21.526Z,26.60
2022-07-31T04:47:51.876Z,26.40
2022-07-31T04:50:21.085Z,26.40
2022-07-31T04:53:02.077Z,26.60
2022-07-31T04:55:37.235Z,26.60
2022-07-31T04:58:06.163Z,26.40
2022-07-31T05:00:35.135Z,26.30
2022-07-31T05:03:06.758Z,26.20
2022-07-31T05:05:36.094Z,26.30
2022-07-31T05:08:06.655Z,26.40
2022-07-31T05:11:01.375Z,26.40
2022-07-31T05:13:31.079Z,26.50
2022-07-31T05:16:00.091Z,26.70
2022-07-31T05:18:30.605Z,26.70
2022-07-31T05:21:32.167Z,26.40
2022-07-31T05:24:33.772Z,26.40
2022-07-31T05:27:32.010Z,26.30
2022-07-31T05:30:01.275Z,26.50
2022-07-31T05:32:30.565Z,26.40
2022-07-31T05:35:01.083Z,26.40
2022-07-31T05:37:30.310Z,26.50
2022-07-31T05:40:01.197Z,26.60
2022-07-31T05:43:05.794Z,26.50
2022-07-31T05:46:05.667Z,26.50
2022-07-31T05:48:34.811Z,26.50
2022-07-31T05:51:09.728Z,26.50
2022-07-31T05:53:39.067Z,26.50
2022-07-31T05:56:28.622Z,26.50
2022-07-31T05:59:00.880Z,26.50
2022-07-31T06:01:30.163Z,26.50
2022-07-31T06:03:59.063Z,26.50
2022-07-31T06:06:35.228Z,26.50
2022-07-31T06:09:05.042Z,26.60
2022-07-31T06:11:38.660Z,26.60
2022-07-31T06:14:08.456Z,26.60
2022-07-31T06:17:07.442Z,26.60
2022-07-31T06:19:38.275Z,26.80
2022-07-31T06:22:09.344Z,26.90
2022-07-31T06:24:40.531Z,27.00
2022-07-31T06:27:16.214Z,27.10
2022-07-31T06:30:00.917Z,27.10
2022-07-31T06:32:30.117Z,27.00
2022-07-31T06:34:59.227Z,27.10
2022-07-31T06:37:31.333Z,27.20
2022-07-31T06:40:01.984Z,27.30
2022-07-31T06:42:49.859Z,27.30
2022-07-31T06:45:51.521Z,27.40
2022-07-31T06:48:56.889Z,27.30
2022-07-31T06:51:31.165Z,27.20
2022-07-31T06:54:03.082Z,27.30
2022-07-31T06:56:33.312Z,27.40
2022-07-31T06:59:03.237Z,27.50
2022-07-31T07:01:32.433Z,27.60
2022-07-31T07:04:01.742Z,27.70
2022-07-31T07:06:31.629Z,27.80
2022-07-31T07:09:02.971Z,27.80
2022-07-31T07:11:32.060Z,27.80
2022-07-31T07:14:01.268Z,27.80
2022-07-31T07:16:30.446Z,27.80
2022-07-31T07:18:59.551Z,27.90
2022-07-31T07:21:30.760Z,27.90
2022-07-31T07:24:01.881Z,28.10
2022-07-31T07:26:39.153Z,28.20
2022-07-31T07:29:10.821Z,28.20
2022-07-31T07:31:40.212Z,28.30
2022-07-31T07:34:10.105Z,28.30
2022-07-31T07:36:39.435Z,28.40
2022-07-31T07:39:16.541Z,28.50
2022-07-31T07:41:46.177Z,28.60
2022-07-31T07:44:15.535Z,28.60
2022-07-31T07:46:44.678Z,28.70
2022-07-31T07:49:18.127Z,28.80
2022-07-31T07:52:28.814Z,28.90
2022-07-31T07:55:06.859Z,29.10
2022-07-31T07:58:02.375Z,29.10
2022-07-31T08:00:50.157Z,29.20
2022-07-31T08:03:49.954Z,29.30
2022-07-31T08:06:17.655Z,29.40
2022-07-31T08:08:46.726Z,29.30
2022-07-31T08:11:35.882Z,29.50
2022-07-31T08:14:12.717Z,29.60
2022-07-31T08:17:13.740Z,29.60
2022-07-31T08:19:44.629Z,29.60
2022-07-31T08:22:17.346Z,29.90
2022-07-31T08:24:46.454Z,29.80
2022-07-31T08:27:39.656Z,29.90
2022-07-31T08:30:11.054Z,29.90
2022-07-31T08:32:40.071Z,30.20
2022-07-31T08:35:15.009Z,30.30
2022-07-31T08:40:43.111Z,30.70
2022-07-31T08:46:08.154Z,30.80
2022-07-31T08:48:43.122Z,31.00
2022-07-31T08:51:14.092Z,31.00
2022-07-31T08:54:12.960Z,30.80
2022-07-31T08:56:46.612Z,30.70
2022-07-31T08:59:18.701Z,30.60
2022-07-31T09:01:48.300Z,30.90
2022-07-31T09:04:19.906Z,31.30
2022-07-31T09:06:52.777Z,31.40
2022-07-31T09:09:23.072Z,31.40
2022-07-31T09:11:54.079Z,31.40
2022-07-31T09:14:50.650Z,31.30
2022-07-31T09:17:19.833Z,31.60
2022-07-31T09:19:51.873Z,31.30
2022-07-31T09:22:30.798Z,31.50
2022-07-31T09:25:12.205Z,31.60
2022-07-31T09:27:42.167Z,32.00
2022-07-31T09:30:14.499Z,32.10
2022-07-31T09:33:18.992Z,31.90
2022-07-31T09:36:15.215Z,32.20
2022-07-31T09:38:49.235Z,32.20
2022-07-31T09:42:02.106Z,32.30
2022-07-31T09:44:42.011Z,32.20
2022-07-31T09:47:24.426Z,32.30
2022-07-31T09:49:58.490Z,32.40
2022-07-31T09:52:29.597Z,32.30
2022-07-31T09:55:16.278Z,32.30
2022-07-31T09:57:54.588Z,32.40
2022-07-31T10:00:24.906Z,32.70
2022-07-31T10:02:57.594Z,32.60
2022-07-31T10:05:29.634Z,32.90
2022-07-31T10:08:03.110Z,32.80
2022-07-31T10:11:04.994Z,32.90
2022-07-31T10:13:47.542Z,33.00
2022-07-31T10:16:17.540Z,33.10
2022-07-31T10:19:01.477Z,33.00
2022-07-31T10:22:07.010Z,33.20
2022-07-31T10:24:45.632Z,33.20
2022-07-31T10:27:16.815Z,33.00
2022-07-31T10:29:47.826Z,33.20
2022-07-31T10:32:17.832Z,33.30
2022-07-31T10:35:22.835Z,33.70
2022-07-31T10:38:18.149Z,33.70
2022-07-31T10:41:04.276Z,33.90
2022-07-31T10:43:42.435Z,34.10
2022-07-31T10:46:32.188Z,33.90
2022-07-31T10:49:20.197Z,33.90
2022-07-31T10:52:04.297Z,34.00
2022-07-31T10:54:51.977Z,33.70
2022-07-31T10:58:09.065Z,33.80
2022-07-31T11:01:07.894Z,33.80
2022-07-31T11:03:46.849Z,33.90
2022-07-31T11:06:27.219Z,34.00
2022-07-31T11:09:25.253Z,33.70
2022-07-31T11:12:19.763Z,33.80
2022-07-31T11:15:24.508Z,33.40
2022-07-31T11:18:22.196Z,33.70
2022-07-31T11:21:22.837Z,33.70
2022-07-31T11:24:03.072Z,33.70
2022-07-31T11:26:42.034Z,33.50
2022-07-31T11:29:58.992Z,33.40
2022-07-31T11:32:02.778Z,33.90
2022-07-31T11:34:31.859Z,33.60
2022-07-31T11:37:02.101Z,33.70
2022-07-31T11:39:36.753Z,33.50
2022-07-31T11:42:08.291Z,33.90
2022-07-31T11:44:37.863Z,33.80
2022-07-31T11:48:09.264Z,34.00
2022-07-31T11:50:03.614Z,34.00
2022-07-31T11:52:39.025Z,33.60
2022-07-31T11:55:10.023Z,33.70
2022-07-31T11:57:51.820Z,34.00
2022-07-31T12:00:24.847Z,34.10
2022-07-31T12:02:59.401Z,34.10
2022-07-31T12:05:44.464Z,34.00
2022-07-31T12:08:13.945Z,34.20
2022-07-31T12:10:44.064Z,34.20
2022-07-31T12:13:16.321Z,33.70
2022-07-31T12:15:57.408Z,33.70
2022-07-31T12:18:27.027Z,33.80
2022-07-31T12:21:00.884Z,34.00
2022-07-31T12:23:41.937Z,33.80
2022-07-31T12:26:14.678Z,33.60
2022-07-31T12:28:45.214Z,34.00
2022-07-31T12:31:14.222Z,34.00
2022-07-31T12:33:44.463Z,33.90
2022-07-31T12:36:14.500Z,33.70
2022-07-31T12:38:47.842Z,33.70
2022-07-31T12:41:18.159Z,33.80
2022-07-31T12:43:51.969Z,33.70
2022-07-31T12:46:23.632Z,33.70
2022-07-31T12:48:52.730Z,33.90
2022-07-31T12:51:45.254Z,34.00
2022-07-31T12:54:11.539Z,33.90
2022-07-31T12:56:42.097Z,33.90
2022-07-31T12:59:12.572Z,33.80
2022-07-31T13:01:42.332Z,33.90
2022-07-31T13:04:18.630Z,33.70
2022-07-31T13:06:52.450Z,33.90
2022-07-31T13:09:21.780Z,34.00
2022-07-31T13:11:55.854Z,34.10
2022-07-31T13:14:28.460Z,33.90
2022-07-31T13:16:57.591Z,33.70
2022-07-31T13:19:27.505Z,33.70
2022-07-31T13:22:02.476Z,33.80
2022-07-31T13:24:31.890Z,34.10
2022-07-31T13:27:01.807Z,34.20
2022-07-31T13:29:32.524Z,33.80
2022-07-31T13:32:02.241Z,33.90
2022-07-31T13:34:31.362Z,34.00
2022-07-31T13:37:00.303Z,33.70
2022-07-31T13:39:29.811Z,33.90
2022-07-31T13:41:59.168Z,33.90
2022-07-31T13:44:28.323Z,33.90
2022-07-31T13:46:58.604Z,33.90
2022-07-31T13:49:32.329Z,34.20
2022-07-31T13:52:02.395Z,34.70
2022-07-31T13:54:31.636Z,34.50
2022-07-31T13:57:08.117Z,35.00
2022-07-31T13:59:37.240Z,35.10
2022-07-31T14:02:07.601Z,35.20
2022-07-31T14:04:38.709Z,35.20
2022-07-31T14:07:09.392Z,34.90
2022-07-31T14:09:38.881Z,35.40
2022-07-31T14:12:16.016Z,35.30
2022-07-31T14:14:47.903Z,35.80
2022-07-31T14:17:18.385Z,35.40
2022-07-31T14:19:47.283Z,35.00
2022-07-31T14:22:16.551Z,35.10
2022-07-31T14:24:51.040Z,35.40
2022-07-31T14:27:21.938Z,35.70
2022-07-31T14:29:50.802Z,36.00
2022-07-31T14:32:22.608Z,35.80
2022-07-31T14:34:51.700Z,36.00
2022-07-31T14:37:21.393Z,35.70
2022-07-31T14:39:50.442Z,36.10
2022-07-31T14:42:22.023Z,36.20
2022-07-31T14:44:54.772Z,35.80
2022-07-31T14:47:36.998Z,35.70
2022-07-31T14:50:12.007Z,36.10
2022-07-31T14:52:42.275Z,36.20
2022-07-31T14:55:11.737Z,36.30
2022-07-31T14:57:40.935Z,35.70
2022-07-31T15:00:13.404Z,35.90
2022-07-31T15:02:45.339Z,35.70
2022-07-31T15:06:44.482Z,35.60
2022-07-31T15:08:04.836Z,35.40
2022-07-31T15:10:34.088Z,35.60
2022-07-31T15:13:03.656Z,35.10
2022-07-31T15:15:33.937Z,34.30
2022-07-31T15:18:04.526Z,34.00
2022-07-31T15:20:35.445Z,33.60
2022-07-31T15:23:05.284Z,33.80
2022-07-31T15:25:34.293Z,33.70
2022-07-31T15:28:03.247Z,33.60
2022-07-31T15:30:32.439Z,33.60
2022-07-31T15:33:01.651Z,33.60
2022-07-31T15:35:32.283Z,33.60
2022-07-31T15:38:02.758Z,33.40
2022-07-31T15:40:32.179Z,33.40
2022-07-31T15:43:01.414Z,33.00
2022-07-31T15:45:30.849Z,33.10
2022-07-31T15:47:59.904Z,33.20
2022-07-31T15:50:28.833Z,33.30
2022-07-31T15:52:59.276Z,33.30
2022-07-31T15:55:28.943Z,33.10
2022-07-31T15:57:58.297Z,32.90
2022-07-31T16:00:27.598Z,33.00
2022-07-31T16:02:56.588Z,32.80
2022-07-31T16:05:36.713Z,32.70
2022-07-31T16:08:29.509Z,32.60
2022-07-31T16:10:59.806Z,32.90
2022-07-31T16:13:28.953Z,32.70
2022-07-31T16:15:57.839Z,32.90
2022-07-31T16:18:27.148Z,33.10
2022-07-31T16:20:56.267Z,33.10
2022-07-31T16:23:28.219Z,33.20
2022-07-31T16:25:57.376Z,33.00
2022-07-31T16:28:26.361Z,32.90
2022-07-31T16:30:55.368Z,33.20
2022-07-31T16:33:24.294Z,33.20
2022-07-31T16:35:53.202Z,32.70
2022-07-31T16:38:22.137Z,32.70
2022-07-31T16:40:53.682Z,33.00
2022-07-31T16:43:48.206Z,32.90
2022-07-31T16:46:11.812Z,32.90
2022-07-31T16:48:40.827Z,32.90
2022-07-31T16:51:10.129Z,32.70
2022-07-31T16:54:13.246Z,32.80
2022-07-31T16:56:29.638Z,32.70
2022-07-31T16:59:04.895Z,32.80
2022-07-31T17:01:58.848Z,33.00
2022-07-31T17:04:23.677Z,32.60
2022-07-31T17:06:52.734Z,32.80
2022-07-31T17:09:22.365Z,32.40
2022-07-31T17:11:54.433Z,32.20
2022-07-31T17:14:27.922Z,32.20
2022-07-31T17:16:59.255Z,32.10
2022-07-31T17:19:35.989Z,32.30
2022-07-31T17:22:18.042Z,32.20
2022-07-31T17:24:51.332Z,32.20
2022-07-31T17:27:22.868Z,32.30
2022-07-31T17:29:52.485Z,32.20
2022-07-31T17:32:22.403Z,32.30
2022-07-31T17:35:13.591Z,32.40
2022-07-31T17:38:03.193Z,32.20
2022-07-31T17:40:47.713Z,32.00
2022-07-31T17:43:18.478Z,32.10
2022-07-31T17:46:05.723Z,31.90
2022-07-31T17:48:37.749Z,32.00
2022-07-31T17:51:06.772Z,31.90
2022-07-31T17:53:54.501Z,31.60
2022-07-31T17:56:24.682Z,31.60
2022-07-31T17:58:55.872Z,31.80
2022-07-31T18:01:28.905Z,31.90
2022-07-31T18:03:58.454Z,31.70
2022-07-31T18:06:27.630Z,31.60
2022-07-31T18:08:57.145Z,31.60
2022-07-31T18:11:26.635Z,31.40
2022-07-31T18:14:01.038Z,31.40
2022-07-31T18:16:32.710Z,31.30
2022-07-31T18:19:01.903Z,31.30
2022-07-31T18:21:32.615Z,31.00
2022-07-31T18:24:05.223Z,30.90
2022-07-31T18:26:35.548Z,30.80
2022-07-31T18:29:06.424Z,30.80
2022-07-31T18:31:36.194Z,30.90
2022-07-31T18:34:06.432Z,30.90
2022-07-31T18:36:36.324Z,30.70
2022-07-31T18:39:06.449Z,30.70
2022-07-31T18:41:37.440Z,30.60
2022-07-31T18:44:07.995Z,30.70
2022-07-31T18:46:37.368Z,30.70
2022-07-31T18:49:08.607Z,30.70
2022-07-31T18:51:57.597Z,30.70
2022-07-31T18:54:49.383Z,30.70
2022-07-31T18:57:20.597Z,30.70
2022-07-31T18:59:51.148Z,30.60
2022-07-31T19:02:20.631Z,30.60
2022-07-31T19:04:51.276Z,30.50
2022-07-31T19:07:20.132Z,30.50
2022-07-31T19:09:49.583Z,30.30
2022-07-31T19:12:19.064Z,30.30
2022-07-31T19:14:48.371Z,30.30
2022-07-31T19:17:21.502Z,30.30
2022-07-31T19:20:00.407Z,30.30
2022-07-31T19:22:31.275Z,30.40
2022-07-31T19:25:00.464Z,30.30
2022-07-31T19:27:46.984Z,30.30
2022-07-31T19:30:19.280Z,30.30
2022-07-31T19:32:49.726Z,30.10
2022-07-31T19:35:19.356Z,30.20
2022-07-31T19:37:56.299Z,30.20
2022-07-31T19:40:25.527Z,30.30
2022-07-31T19:43:09.100Z,30.30
2022-07-31T19:46:09.584Z,30.30
2022-07-31T19:48:29.008Z,30.30
2022-07-31T19:50:58.190Z,30.30
2022-07-31T19:53:27.144Z,30.30
2022-07-31T19:55:56.340Z,30.30
2022-07-31T19:58:25.438Z,30.30
2022-07-31T20:00:54.557Z,30.40
2022-07-31T20:03:23.706Z,30.20
2022-07-31T20:05:54.384Z,30.00
2022-07-31T20:08:23.500Z,30.00
2022-07-31T20:11:03.997Z,30.10
2022-07-31T20:13:33.972Z,30.00
2022-07-31T20:16:03.084Z,30.00
2022-07-31T20:18:32.283Z,29.90
2022-07-31T20:21:07.547Z,29.90
2022-07-31T20:23:38.655Z,29.80
2022-07-31T20:26:09.850Z,29.90
2022-07-31T20:28:40.486Z,29.90
2022-07-31T20:31:16.277Z,29.80
2022-07-31T20:33:57.478Z,30.00
2022-07-31T20:36:28.914Z,30.20
2022-07-31T20:38:59.101Z,30.10
2022-07-31T20:41:28.608Z,30.00
2022-07-31T20:43:57.525Z,29.70
2022-07-31T20:46:27.926Z,29.70
2022-07-31T20:48:57.522Z,29.90
2022-07-31T20:51:28.196Z,29.90
2022-07-31T20:53:57.614Z,29.90
2022-07-31T20:56:26.931Z,29.80
2022-07-31T20:58:56.164Z,30.00
2022-07-31T21:01:26.447Z,30.00
2022-07-31T21:03:56.347Z,30.00
2022-07-31T21:06:25.905Z,29.80
2022-07-31T21:08:56.343Z,29.80
2022-07-31T21:11:31.674Z,29.60
2022-07-31T21:14:03.156Z,29.60
2022-07-31T21:16:32.864Z,29.80
2022-07-31T21:19:01.841Z,29.80
2022-07-31T21:21:30.850Z,29.70
2022-07-31T21:24:01.169Z,29.50
2022-07-31T21:26:33.334Z,29.50
2022-07-31T21:29:03.382Z,29.50
2022-07-31T21:31:32.513Z,29.60
2022-07-31T21:34:02.040Z,29.40
2022-07-31T21:36:31.538Z,29.60
2022-07-31T21:39:02.518Z,29.60
2022-07-31T21:41:32.188Z,29.50
2022-07-31T21:44:01.774Z,29.60
2022-07-31T21:46:32.733Z,29.50
2022-07-31T21:49:02.398Z,29.50
2022-07-31T21:51:33.352Z,29.50
2022-07-31T21:54:03.794Z,29.30
2022-07-31T21:56:33.464Z,29.30
2022-07-31T21:59:02.461Z,29.30
2022-07-31T22:01:31.538Z,29.30
2022-07-31T22:04:00.447Z,29.30
2022-07-31T22:06:47.117Z,29.20
2022-07-31T22:09:19.141Z,29.40
2022-07-31T22:12:00.143Z,29.50
2022-07-31T22:14:31.168Z,29.50
2022-07-31T22:17:00.043Z,29.50
2022-07-31T22:19:30.084Z,29.20
2022-07-31T22:21:59.580Z,29.10
2022-07-31T22:24:30.619Z,29.10
2022-07-31T22:27:18.468Z,29.00
2022-07-31T22:29:48.300Z,29.20
2022-07-31T22:32:17.970Z,29.30
2022-07-31T22:34:47.329Z,29.10
2022-07-31T22:37:17.083Z,29.10
2022-07-31T22:39:48.356Z,29.00
2022-07-31T22:42:17.754Z,29.00
2022-07-31T22:44:47.140Z,29.10
2022-07-31T22:47:18.499Z,29.00
2022-07-31T22:49:47.751Z,28.80
2022-07-31T22:52:16.855Z,28.60
2022-07-31T22:54:47.330Z,28.60
2022-07-31T22:57:17.317Z,28.90
2022-07-31T22:59:48.999Z,29.00
2022-07-31T23:02:18.193Z,28.60
2022-07-31T23:04:47.263Z,28.50
2022-07-31T23:07:16.417Z,28.70
2022-07-31T23:09:46.844Z,28.70
2022-07-31T23:12:15.754Z,28.70
2022-07-31T23:14:45.106Z,28.60
2022-07-31T23:17:22.376Z,28.80
2022-07-31T23:19:53.927Z,28.80
2022-07-31T23:22:33.368Z,28.70
2022-07-31T23:25:05.168Z,28.70
2022-07-31T23:27:34.518Z,28.70
2022-07-31T23:30:04.013Z,28.70
2022-07-31T23:32:33.041Z,28.70
2022-07-31T23:35:02.336Z,28.70
2022-07-31T23:37:31.484Z,28.70
2022-07-31T23:40:00.384Z,28.70
2022-07-31T23:42:40.146Z,28.50
2022-07-31T23:45:12.162Z,28.60
2022-07-31T23:47:45.613Z,28.70
2022-07-31T23:50:16.055Z,28.70
2022-07-31T23:52:45.234Z,28.70
2022-07-31T23:55:14.557Z,28.60
2022-07-31T23:57:45.350Z,28.50
